sensor_id;sensor_type;location;lat;lon;timestamp;pressure;altitude;pressure_sealevel;temperature;humidity
8286;BME280;4181;43.416;24.598;2023-06-14T00:00:04;98930.31;;;19.44;100.00
8286;BME280;4181;43.416;24.598;2023-06-14T00:02:39;98929.16;;;19.45;100.00
8286;BME280;4181;43.416;24.598;2023-06-14T00:08:06;98908.66;;;19.46;100.00
8286;BME280;4181;43.416;24.598;2023-06-14T00:10:40;98909.31;;;19.43;100.00
8286;BME280;4181;43.416;24.598;2023-06-14T00:13:26;98896.09;;;19.28;100.00
8286;BME280;4181;43.416;24.598;2023-06-14T00:15:57;98880.16;;;19.25;100.00
8286;BME280;4181;43.416;24.598;2023-06-14T00:18:24;98878.28;;;19.17;100.00
8286;BME280;4181;43.416;24.598;2023-06-14T00:20:58;98859.19;;;19.24;100.00
8286;BME280;4181;43.416;24.598;2023-06-14T00:23:33;98867.16;;;19.25;100.00
8286;BME280;4181;43.416;24.598;2023-06-14T00:26:07;98858.00;;;19.33;100.00
8286;BME280;4181;43.416;24.598;2023-06-14T00:31:18;98859.88;;;19.41;100.00
8286;BME280;4181;43.416;24.598;2023-06-14T00:33:58;98859.00;;;19.49;100.00
8286;BME280;4181;43.416;24.598;2023-06-14T00:36:37;98866.97;;;19.51;100.00
8286;BME280;4181;43.416;24.598;2023-06-14T00:39:10;98862.56;;;19.50;100.00
8286;BME280;4181;43.416;24.598;2023-06-14T00:41:50;98860.28;;;19.52;100.00
8286;BME280;4181;43.416;24.598;2023-06-14T00:47:02;98883.63;;;19.42;100.00
8286;BME280;4181;43.416;24.598;2023-06-14T00:49:34;98877.69;;;19.32;100.00
8286;BME280;4181;43.416;24.598;2023-06-14T00:52:04;98868.25;;;19.33;100.00
8286;BME280;4181;43.416;24.598;2023-06-14T00:54:44;98861.44;;;19.30;100.00
8286;BME280;4181;43.416;24.598;2023-06-14T00:57:14;98847.13;;;19.28;100.00
8286;BME280;4181;43.416;24.598;2023-06-14T00:59:55;98845.91;;;19.38;100.00
8286;BME280;4181;43.416;24.598;2023-06-14T01:02:37;98850.09;;;19.44;100.00
8286;BME280;4181;43.416;24.598;2023-06-14T01:05:08;98844.31;;;19.37;100.00
8286;BME280;4181;43.416;24.598;2023-06-14T01:11:07;98845.94;;;19.17;100.00
8286;BME280;4181;43.416;24.598;2023-06-14T01:13:43;98826.09;;;19.36;100.00
8286;BME280;4181;43.416;24.598;2023-06-14T01:16:13;98819.63;;;19.32;100.00
8286;BME280;4181;43.416;24.598;2023-06-14T01:18:46;98805.31;;;19.30;100.00
8286;BME280;4181;43.416;24.598;2023-06-14T01:21:25;98812.28;;;19.36;100.00
8286;BME280;4181;43.416;24.598;2023-06-14T01:26:33;98816.22;;;19.47;100.00
8286;BME280;4181;43.416;24.598;2023-06-14T01:29:03;98851.69;;;19.45;100.00
8286;BME280;4181;43.416;24.598;2023-06-14T01:31:37;98864.13;;;19.39;100.00
8286;BME280;4181;43.416;24.598;2023-06-14T01:34:07;98873.97;;;19.48;100.00
8286;BME280;4181;43.416;24.598;2023-06-14T01:36:46;98887.28;;;19.34;100.00
8286;BME280;4181;43.416;24.598;2023-06-14T01:39:19;98880.19;;;19.45;100.00
8286;BME280;4181;43.416;24.598;2023-06-14T01:44:44;98882.94;;;19.25;100.00
8286;BME280;4181;43.416;24.598;2023-06-14T01:47:17;98881.41;;;19.36;100.00
8286;BME280;4181;43.416;24.598;2023-06-14T01:49:48;98877.03;;;19.35;100.00
8286;BME280;4181;43.416;24.598;2023-06-14T01:52:17;98876.69;;;19.36;100.00
8286;BME280;4181;43.416;24.598;2023-06-14T01:54:54;98884.75;;;19.41;100.00
8286;BME280;4181;43.416;24.598;2023-06-14T01:57:23;98877.06;;;19.26;100.00
8286;BME280;4181;43.416;24.598;2023-06-14T01:59:53;98865.91;;;19.23;100.00
8286;BME280;4181;43.416;24.598;2023-06-14T02:02:26;98863.06;;;19.11;100.00
8286;BME280;4181;43.416;24.598;2023-06-14T02:04:54;98862.38;;;19.14;100.00
8286;BME280;4181;43.416;24.598;2023-06-14T02:07:27;98871.41;;;19.02;100.00
8286;BME280;4181;43.416;24.598;2023-06-14T02:09:59;98844.22;;;19.25;100.00
8286;BME280;4181;43.416;24.598;2023-06-14T02:12:27;98850.91;;;19.24;100.00
8286;BME280;4181;43.416;24.598;2023-06-14T02:14:59;98851.44;;;19.38;100.00
8286;BME280;4181;43.416;24.598;2023-06-14T02:17:39;98853.22;;;19.42;100.00
8286;BME280;4181;43.416;24.598;2023-06-14T02:20:14;98863.81;;;19.40;100.00
8286;BME280;4181;43.416;24.598;2023-06-14T02:22:47;98857.50;;;19.52;100.00
8286;BME280;4181;43.416;24.598;2023-06-14T02:25:16;98857.16;;;19.53;100.00
8286;BME280;4181;43.416;24.598;2023-06-14T02:27:48;98870.16;;;19.53;100.00
8286;BME280;4181;43.416;24.598;2023-06-14T02:30:25;98870.78;;;19.58;100.00
8286;BME280;4181;43.416;24.598;2023-06-14T02:33:05;98880.59;;;19.56;100.00
8286;BME280;4181;43.416;24.598;2023-06-14T02:35:32;98878.38;;;19.61;100.00
8286;BME280;4181;43.416;24.598;2023-06-14T02:38:01;98868.81;;;19.59;100.00
8286;BME280;4181;43.416;24.598;2023-06-14T02:40:38;98883.25;;;19.64;100.00
8286;BME280;4181;43.416;24.598;2023-06-14T02:43:09;98873.81;;;19.65;100.00
8286;BME280;4181;43.416;24.598;2023-06-14T02:45:38;98875.78;;;19.77;100.00
8286;BME280;4181;43.416;24.598;2023-06-14T02:48:07;98892.66;;;19.84;100.00
8286;BME280;4181;43.416;24.598;2023-06-14T02:50:49;98903.94;;;19.79;100.00
8286;BME280;4181;43.416;24.598;2023-06-14T02:53:19;98915.44;;;19.69;100.00
8286;BME280;4181;43.416;24.598;2023-06-14T02:55:50;98916.38;;;19.73;100.00
8286;BME280;4181;43.416;24.598;2023-06-14T02:58:17;98914.19;;;19.78;100.00
8286;BME280;4181;43.416;24.598;2023-06-14T03:00:44;98917.44;;;19.80;100.00
8286;BME280;4181;43.416;24.598;2023-06-14T03:03:11;98917.09;;;19.82;100.00
8286;BME280;4181;43.416;24.598;2023-06-14T03:05:48;98924.78;;;19.76;100.00
8286;BME280;4181;43.416;24.598;2023-06-14T03:08:27;98921.81;;;19.81;100.00
8286;BME280;4181;43.416;24.598;2023-06-14T03:10:56;98928.84;;;19.79;100.00
8286;BME280;4181;43.416;24.598;2023-06-14T03:13:28;98938.69;;;19.56;100.00
8286;BME280;4181;43.416;24.598;2023-06-14T03:16:00;98926.47;;;19.57;100.00
8286;BME280;4181;43.416;24.598;2023-06-14T03:18:36;98914.69;;;19.60;100.00
8286;BME280;4181;43.416;24.598;2023-06-14T03:21:05;98923.75;;;19.48;100.00
8286;BME280;4181;43.416;24.598;2023-06-14T03:23:34;98917.16;;;19.41;100.00
8286;BME280;4181;43.416;24.598;2023-06-14T03:26:06;98911.50;;;19.37;100.00
8286;BME280;4181;43.416;24.598;2023-06-14T03:28:38;98917.28;;;19.24;100.00
8286;BME280;4181;43.416;24.598;2023-06-14T03:31:19;98904.88;;;19.30;100.00
8286;BME280;4181;43.416;24.598;2023-06-14T03:33:49;98905.53;;;19.27;100.00
8286;BME280;4181;43.416;24.598;2023-06-14T03:36:19;98902.88;;;19.39;100.00
8286;BME280;4181;43.416;24.598;2023-06-14T03:38:51;98916.06;;;19.33;100.00
8286;BME280;4181;43.416;24.598;2023-06-14T03:41:24;98909.94;;;19.28;100.00
8286;BME280;4181;43.416;24.598;2023-06-14T03:43:57;98904.47;;;19.40;100.00
8286;BME280;4181;43.416;24.598;2023-06-14T03:49:06;98897.19;;;19.56;100.00
8286;BME280;4181;43.416;24.598;2023-06-14T03:51:44;98895.34;;;19.60;100.00
8286;BME280;4181;43.416;24.598;2023-06-14T03:54:23;98908.66;;;19.46;100.00
8286;BME280;4181;43.416;24.598;2023-06-14T03:57:06;98886.66;;;19.49;100.00
8286;BME280;4181;43.416;24.598;2023-06-14T03:59:36;98910.41;;;19.50;100.00
8286;BME280;4181;43.416;24.598;2023-06-14T04:02:07;98905.75;;;19.42;100.00
8286;BME280;4181;43.416;24.598;2023-06-14T04:04:40;98896.03;;;19.57;100.00
8286;BME280;4181;43.416;24.598;2023-06-14T04:07:19;98899.69;;;19.49;100.00
8286;BME280;4181;43.416;24.598;2023-06-14T04:09:45;98897.84;;;19.53;100.00
8286;BME280;4181;43.416;24.598;2023-06-14T04:12:20;98906.47;;;19.51;100.00
8286;BME280;4181;43.416;24.598;2023-06-14T04:14:51;98897.00;;;19.73;100.00
8286;BME280;4181;43.416;24.598;2023-06-14T04:17:21;98908.53;;;19.75;100.00
8286;BME280;4181;43.416;24.598;2023-06-14T04:19:57;98906.97;;;19.86;100.00
8286;BME280;4181;43.416;24.598;2023-06-14T04:22:32;98912.50;;;19.86;100.00
8286;BME280;4181;43.416;24.598;2023-06-14T04:25:07;98915.41;;;19.89;100.00
8286;BME280;4181;43.416;24.598;2023-06-14T04:27:35;98918.66;;;20.03;100.00
8286;BME280;4181;43.416;24.598;2023-06-14T04:30:04;98928.69;;;20.08;100.00
8286;BME280;4181;43.416;24.598;2023-06-14T04:32:36;98940.53;;;19.96;100.00
8286;BME280;4181;43.416;24.598;2023-06-14T04:35:12;98950.94;;;19.67;100.00
8286;BME280;4181;43.416;24.598;2023-06-14T04:37:44;98951.28;;;19.45;100.00
8286;BME280;4181;43.416;24.598;2023-06-14T04:40:18;98939.03;;;19.34;100.00
8286;BME280;4181;43.416;24.598;2023-06-14T04:42:49;98922.69;;;19.41;100.00
8286;BME280;4181;43.416;24.598;2023-06-14T04:45:19;98922.94;;;19.48;100.00
8286;BME280;4181;43.416;24.598;2023-06-14T04:47:48;98923.91;;;19.52;100.00
8286;BME280;4181;43.416;24.598;2023-06-14T04:50:20;98924.97;;;19.59;100.00
8286;BME280;4181;43.416;24.598;2023-06-14T04:52:48;98929.00;;;19.62;100.00
8286;BME280;4181;43.416;24.598;2023-06-14T04:55:20;98931.31;;;19.60;100.00
8286;BME280;4181;43.416;24.598;2023-06-14T04:57:48;98932.38;;;19.67;100.00
8286;BME280;4181;43.416;24.598;2023-06-14T05:00:17;98922.09;;;19.68;100.00
8286;BME280;4181;43.416;24.598;2023-06-14T05:02:57;98922.66;;;19.61;100.00
8286;BME280;4181;43.416;24.598;2023-06-14T05:05:40;98919.13;;;19.73;100.00
8286;BME280;4181;43.416;24.598;2023-06-14T05:08:23;98915.69;;;19.76;100.00
8286;BME280;4181;43.416;24.598;2023-06-14T05:11:05;98923.75;;;19.69;100.00
8286;BME280;4181;43.416;24.598;2023-06-14T05:13:46;98932.88;;;19.81;100.00
8286;BME280;4181;43.416;24.598;2023-06-14T05:16:21;98929.13;;;19.86;100.00
8286;BME280;4181;43.416;24.598;2023-06-14T05:18:53;98929.53;;;19.76;100.00
8286;BME280;4181;43.416;24.598;2023-06-14T05:21:21;98935.72;;;19.73;100.00
8286;BME280;4181;43.416;24.598;2023-06-14T05:23:59;98945.34;;;19.75;100.00
8286;BME280;4181;43.416;24.598;2023-06-14T05:26:28;98963.31;;;19.49;100.00
8286;BME280;4181;43.416;24.598;2023-06-14T05:28:59;98949.69;;;19.44;100.00
8286;BME280;4181;43.416;24.598;2023-06-14T05:31:31;98937.72;;;19.52;100.00
8286;BME280;4181;43.416;24.598;2023-06-14T05:34:01;98935.56;;;19.57;100.00
8286;BME280;4181;43.416;24.598;2023-06-14T05:36:28;98931.91;;;19.65;100.00
8286;BME280;4181;43.416;24.598;2023-06-14T05:39:07;98925.47;;;19.73;100.00
8286;BME280;4181;43.416;24.598;2023-06-14T05:41:48;98929.13;;;19.86;100.00
8286;BME280;4181;43.416;24.598;2023-06-14T05:44:25;98930.94;;;19.82;100.00
8286;BME280;4181;43.416;24.598;2023-06-14T05:46:58;98931.88;;;19.86;100.00
8286;BME280;4181;43.416;24.598;2023-06-14T05:49:24;98933.34;;;19.83;100.00
8286;BME280;4181;43.416;24.598;2023-06-14T05:51:59;98931.19;;;19.89;100.00
8286;BME280;4181;43.416;24.598;2023-06-14T05:54:34;98938.75;;;19.80;100.00
8286;BME280;4181;43.416;24.598;2023-06-14T05:57:05;98930.03;;;19.90;100.00
8286;BME280;4181;43.416;24.598;2023-06-14T05:59:48;98938.00;;;19.91;100.00
8286;BME280;4181;43.416;24.598;2023-06-14T06:02:16;98943.66;;;19.95;100.00
8286;BME280;4181;43.416;24.598;2023-06-14T06:04:44;98945.91;;;20.13;100.00
8286;BME280;4181;43.416;24.598;2023-06-14T06:07:14;98957.28;;;20.21;100.00
8286;BME280;4181;43.416;24.598;2023-06-14T06:09:46;98965.63;;;20.12;100.00
8286;BME280;4181;43.416;24.598;2023-06-14T06:12:15;98970.66;;;20.19;100.00
8286;BME280;4181;43.416;24.598;2023-06-14T06:14:40;98981.03;;;20.22;100.00
8286;BME280;4181;43.416;24.598;2023-06-14T06:19:52;99009.81;;;20.29;100.00
8286;BME280;4181;43.416;24.598;2023-06-14T06:22:21;99011.78;;;20.41;100.00
8286;BME280;4181;43.416;24.598;2023-06-14T06:24:49;99004.19;;;20.38;100.00
8286;BME280;4181;43.416;24.598;2023-06-14T06:27:22;99011.50;;;20.22;100.00
8286;BME280;4181;43.416;24.598;2023-06-14T06:29:57;99002.06;;;20.35;100.00
8286;BME280;4181;43.416;24.598;2023-06-14T06:32:28;98996.09;;;20.45;100.00
8286;BME280;4181;43.416;24.598;2023-06-14T06:34:57;99006.13;;;20.37;100.00
8286;BME280;4181;43.416;24.598;2023-06-14T06:37:25;99008.91;;;20.37;100.00
8286;BME280;4181;43.416;24.598;2023-06-14T06:39:52;99013.06;;;20.43;100.00
8286;BME280;4181;43.416;24.598;2023-06-14T06:42:22;99013.56;;;20.57;100.00
8286;BME280;4181;43.416;24.598;2023-06-14T06:44:57;99036.31;;;20.63;100.00
8286;BME280;4181;43.416;24.598;2023-06-14T06:47:29;99044.63;;;20.75;100.00
8286;BME280;4181;43.416;24.598;2023-06-14T06:50:03;99057.50;;;20.79;100.00
8286;BME280;4181;43.416;24.598;2023-06-14T06:52:41;99057.63;;;20.83;100.00
8286;BME280;4181;43.416;24.598;2023-06-14T06:55:13;99047.72;;;21.06;100.00
8286;BME280;4181;43.416;24.598;2023-06-14T06:57:45;99060.53;;;21.34;100.00
8286;BME280;4181;43.416;24.598;2023-06-14T07:00:15;99085.06;;;21.45;100.00
8286;BME280;4181;43.416;24.598;2023-06-14T07:02:46;99090.91;;;21.67;100.00
8286;BME280;4181;43.416;24.598;2023-06-14T07:05:17;99112.56;;;21.86;100.00
8286;BME280;4181;43.416;24.598;2023-06-14T07:07:49;99145.38;;;21.72;100.00
8286;BME280;4181;43.416;24.598;2023-06-14T07:10:21;99154.78;;;21.79;100.00
8286;BME280;4181;43.416;24.598;2023-06-14T07:13:03;99165.44;;;21.89;100.00
8286;BME280;4181;43.416;24.598;2023-06-14T07:15:33;99184.28;;;21.84;100.00
8286;BME280;4181;43.416;24.598;2023-06-14T07:18:11;99182.16;;;21.57;100.00
8286;BME280;4181;43.416;24.598;2023-06-14T07:20:42;99198.03;;;21.56;100.00
8286;BME280;4181;43.416;24.598;2023-06-14T07:23:20;99195.84;;;21.50;100.00
8286;BME280;4181;43.416;24.598;2023-06-14T07:25:48;99201.13;;;21.30;100.00
8286;BME280;4181;43.416;24.598;2023-06-14T07:28:17;99198.09;;;20.91;100.00
8286;BME280;4181;43.416;24.598;2023-06-14T07:30:49;99182.72;;;20.93;100.00
8286;BME280;4181;43.416;24.598;2023-06-14T07:33:19;99148.81;;;21.08;100.00
8286;BME280;4181;43.416;24.598;2023-06-14T07:35:47;99118.44;;;21.12;100.00
8286;BME280;4181;43.416;24.598;2023-06-14T07:38:18;99148.75;;;21.53;100.00
8286;BME280;4181;43.416;24.598;2023-06-14T07:40:52;99166.47;;;21.61;100.00
8286;BME280;4181;43.416;24.598;2023-06-14T07:43:21;99164.38;;;21.70;100.00
8286;BME280;4181;43.416;24.598;2023-06-14T07:45:50;99167.50;;;21.80;100.00
8286;BME280;4181;43.416;24.598;2023-06-14T07:48:40;99171.19;;;21.72;100.00
8286;BME280;4181;43.416;24.598;2023-06-14T07:51:11;99168.28;;;21.69;100.00
8286;BME280;4181;43.416;24.598;2023-06-14T07:53:44;99177.22;;;21.74;100.00
8286;BME280;4181;43.416;24.598;2023-06-14T07:56:16;99179.88;;;21.59;100.00
8286;BME280;4181;43.416;24.598;2023-06-14T07:58:55;99175.34;;;21.54;100.00
8286;BME280;4181;43.416;24.598;2023-06-14T08:01:23;99161.47;;;21.54;100.00
8286;BME280;4181;43.416;24.598;2023-06-14T08:03:56;99169.00;;;21.66;100.00
8286;BME280;4181;43.416;24.598;2023-06-14T08:06:27;99178.25;;;21.70;100.00
8286;BME280;4181;43.416;24.598;2023-06-14T08:09:00;99182.91;;;21.78;100.00
8286;BME280;4181;43.416;24.598;2023-06-14T08:11:27;99188.00;;;21.88;100.00
8286;BME280;4181;43.416;24.598;2023-06-14T08:14:00;99197.22;;;21.92;100.00
8286;BME280;4181;43.416;24.598;2023-06-14T08:16:30;99215.66;;;21.96;100.00
8286;BME280;4181;43.416;24.598;2023-06-14T08:18:59;99245.16;;;21.89;100.00
8286;BME280;4181;43.416;24.598;2023-06-14T08:21:30;99256.03;;;21.82;100.00
8286;BME280;4181;43.416;24.598;2023-06-14T08:24:00;99255.44;;;21.88;100.00
8286;BME280;4181;43.416;24.598;2023-06-14T08:26:46;99270.16;;;21.89;100.00
8286;BME280;4181;43.416;24.598;2023-06-14T08:29:22;99285.06;;;21.27;100.00
8286;BME280;4181;43.416;24.598;2023-06-14T08:31:51;99269.00;;;21.45;100.00
8286;BME280;4181;43.416;24.598;2023-06-14T08:34:29;99270.69;;;21.70;100.00
8286;BME280;4181;43.416;24.598;2023-06-14T08:37:04;99254.53;;;21.84;100.00
8286;BME280;4181;43.416;24.598;2023-06-14T08:39:37;99272.22;;;22.04;100.00
8286;BME280;4181;43.416;24.598;2023-06-14T08:42:05;99280.09;;;22.38;100.00
8286;BME280;4181;43.416;24.598;2023-06-14T08:44:36;99297.19;;;22.52;100.00
8286;BME280;4181;43.416;24.598;2023-06-14T08:47:09;99321.09;;;22.41;100.00
8286;BME280;4181;43.416;24.598;2023-06-14T08:49:49;99325.16;;;22.55;100.00
8286;BME280;4181;43.416;24.598;2023-06-14T08:52:24;99340.34;;;22.58;100.00
8286;BME280;4181;43.416;24.598;2023-06-14T08:55:05;99349.81;;;22.57;100.00
8286;BME280;4181;43.416;24.598;2023-06-14T08:57:36;99352.78;;;22.40;100.00
8286;BME280;4181;43.416;24.598;2023-06-14T09:00:06;99348.63;;;22.70;100.00
8286;BME280;4181;43.416;24.598;2023-06-14T09:02:44;99371.69;;;22.71;100.00
8286;BME280;4181;43.416;24.598;2023-06-14T09:05:10;99401.28;;;22.63;100.00
8286;BME280;4181;43.416;24.598;2023-06-14T09:07:45;99393.47;;;22.81;100.00
8286;BME280;4181;43.416;24.598;2023-06-14T09:10:22;99399.13;;;22.96;100.00
8286;BME280;4181;43.416;24.598;2023-06-14T09:13:03;99409.22;;;23.01;100.00
8286;BME280;4181;43.416;24.598;2023-06-14T09:15:41;99404.22;;;23.06;100.00
8286;BME280;4181;43.416;24.598;2023-06-14T09:18:10;99405.97;;;22.99;100.00
8286;BME280;4181;43.416;24.598;2023-06-14T09:20:48;99402.28;;;22.95;100.00
8286;BME280;4181;43.416;24.598;2023-06-14T09:23:28;99412.72;;;22.86;100.00
8286;BME280;4181;43.416;24.598;2023-06-14T09:26:00;99412.13;;;22.92;100.00
8286;BME280;4181;43.416;24.598;2023-06-14T09:28:35;99410.28;;;22.84;100.00
8286;BME280;4181;43.416;24.598;2023-06-14T09:31:05;99412.72;;;22.86;100.00
8286;BME280;4181;43.416;24.598;2023-06-14T09:33:37;99404.47;;;22.89;100.00
8286;BME280;4181;43.416;24.598;2023-06-14T09:36:15;99398.56;;;22.79;100.00
8286;BME280;4181;43.416;24.598;2023-06-14T09:39:03;99402.72;;;22.97;100.00
8286;BME280;4181;43.416;24.598;2023-06-14T09:44:08;99420.00;;;22.90;100.00
8286;BME280;4181;43.416;24.598;2023-06-14T09:46:43;99423.69;;;23.06;100.00
8286;BME280;4181;43.416;24.598;2023-06-14T09:49:15;99398.94;;;23.29;100.00
8286;BME280;4181;43.416;24.598;2023-06-14T09:51:45;99418.47;;;23.56;100.00
8286;BME280;4181;43.416;24.598;2023-06-14T09:54:22;99445.34;;;23.64;100.00
8286;BME280;4181;43.416;24.598;2023-06-14T09:56:53;99460.03;;;23.77;100.00
8286;BME280;4181;43.416;24.598;2023-06-14T09:59:26;99448.19;;;24.08;100.00
8286;BME280;4181;43.416;24.598;2023-06-14T10:02:09;99453.84;;;24.70;100.00
8286;BME280;4181;43.416;24.598;2023-06-14T10:07:42;99522.13;;;25.07;100.00
8286;BME280;4181;43.416;24.598;2023-06-14T10:10:14;99548.50;;;24.94;100.00
8286;BME280;4181;43.416;24.598;2023-06-14T10:12:48;99564.91;;;24.80;100.00
8286;BME280;4181;43.416;24.598;2023-06-14T10:15:20;99582.34;;;24.77;100.00
8286;BME280;4181;43.416;24.598;2023-06-14T10:18:16;99572.81;;;24.78;100.00
8286;BME280;4181;43.416;24.598;2023-06-14T10:24:02;99569.38;;;25.31;100.00
8286;BME280;4181;43.416;24.598;2023-06-14T10:26:31;99580.78;;;25.38;100.00
8286;BME280;4181;43.416;24.598;2023-06-14T10:29:09;99597.41;;;25.35;100.00
8286;BME280;4181;43.416;24.598;2023-06-14T10:31:53;99594.06;;;25.60;100.00
8286;BME280;4181;43.416;24.598;2023-06-14T10:34:33;99616.19;;;25.69;100.00
8286;BME280;4181;43.416;24.598;2023-06-14T10:39:43;99651.59;;;25.80;100.00
8286;BME280;4181;43.416;24.598;2023-06-14T10:42:16;99652.50;;;25.84;100.00
8286;BME280;4181;43.416;24.598;2023-06-14T10:44:56;99662.50;;;25.85;100.00
8286;BME280;4181;43.416;24.598;2023-06-14T10:47:28;99666.28;;;25.93;100.00
8286;BME280;4181;43.416;24.598;2023-06-14T10:52:41;99693.50;;;25.96;100.00
8286;BME280;4181;43.416;24.598;2023-06-14T10:55:17;99693.22;;;26.01;100.00
8286;BME280;4181;43.416;24.598;2023-06-14T10:57:50;99700.63;;;26.09;100.00
8286;BME280;4181;43.416;24.598;2023-06-14T11:00:25;99690.50;;;26.20;100.00
8286;BME280;4181;43.416;24.598;2023-06-14T11:06:09;99705.16;;;26.13;100.00
8286;BME280;4181;43.416;24.598;2023-06-14T11:12:11;99728.69;;;25.81;100.00
8286;BME280;4181;43.416;24.598;2023-06-14T11:14:38;99722.84;;;25.71;100.00
8286;BME280;4181;43.416;24.598;2023-06-14T11:17:05;99714.00;;;25.38;100.00
8286;BME280;4181;43.416;24.598;2023-06-14T11:22:20;99716.47;;;25.70;100.00
8286;BME280;4181;43.416;24.598;2023-06-14T11:24:55;99721.19;;;26.01;100.00
8286;BME280;4181;43.416;24.598;2023-06-14T11:27:29;99739.78;;;25.93;100.00
8286;BME280;4181;43.416;24.598;2023-06-14T11:30:07;99712.25;;;25.95;100.00
8286;BME280;4181;43.416;24.598;2023-06-14T11:32:40;99715.47;;;26.29;100.00
8286;BME280;4181;43.416;24.598;2023-06-14T11:35:09;99708.88;;;26.37;100.00
8286;BME280;4181;43.416;24.598;2023-06-14T11:37:40;99710.50;;;26.57;100.00
8286;BME280;4181;43.416;24.598;2023-06-14T11:40:10;99712.94;;;26.96;100.00
8286;BME280;4181;43.416;24.598;2023-06-14T11:42:48;99714.88;;;27.34;100.00
8286;BME280;4181;43.416;24.598;2023-06-14T11:45:18;99731.34;;;27.35;100.00
8286;BME280;4181;43.416;24.598;2023-06-14T11:47:54;99736.34;;;27.49;100.00
8286;BME280;4181;43.416;24.598;2023-06-14T11:50:28;99736.66;;;27.44;100.00
8286;BME280;4181;43.416;24.598;2023-06-14T11:53:07;99746.59;;;27.61;100.00
8286;BME280;4181;43.416;24.598;2023-06-14T11:55:39;99740.03;;;27.76;100.00
8286;BME280;4181;43.416;24.598;2023-06-14T11:58:07;99742.16;;;27.82;100.00
8286;BME280;4181;43.416;24.598;2023-06-14T12:03:25;99752.16;;;28.02;100.00
8286;BME280;4181;43.416;24.598;2023-06-14T12:06:07;99760.59;;;28.06;100.00
8286;BME280;4181;43.416;24.598;2023-06-14T12:08:42;99751.25;;;28.24;100.00
8286;BME280;4181;43.416;24.598;2023-06-14T12:11:13;99747.38;;;28.32;100.00
8286;BME280;4181;43.416;24.598;2023-06-14T12:13:47;99751.59;;;27.93;100.00
8286;BME280;4181;43.416;24.598;2023-06-14T12:16:15;99760.16;;;27.36;100.00
8286;BME280;4181;43.416;24.598;2023-06-14T12:18:52;99750.81;;;27.28;100.00
8286;BME280;4181;43.416;24.598;2023-06-14T12:21:29;99745.59;;;27.50;100.00
8286;BME280;4181;43.416;24.598;2023-06-14T12:23:56;99726.59;;;27.62;100.00
8286;BME280;4181;43.416;24.598;2023-06-14T12:26:30;99734.59;;;27.86;100.00
8286;BME280;4181;43.416;24.598;2023-06-14T12:28:59;99741.19;;;27.94;100.00
8286;BME280;4181;43.416;24.598;2023-06-14T12:31:29;99737.69;;;28.00;100.00
8286;BME280;4181;43.416;24.598;2023-06-14T12:34:01;99743.66;;;27.76;100.00
8286;BME280;4181;43.416;24.598;2023-06-14T12:36:33;99747.16;;;27.70;100.00
8286;BME280;4181;43.416;24.598;2023-06-14T12:39:10;99734.25;;;27.65;100.00
8286;BME280;4181;43.416;24.598;2023-06-14T12:41:41;99730.50;;;27.58;100.00
8286;BME280;4181;43.416;24.598;2023-06-14T12:44:11;99728.09;;;27.56;100.00
8286;BME280;4181;43.416;24.598;2023-06-14T12:46:46;99716.75;;;27.72;100.00
8286;BME280;4181;43.416;24.598;2023-06-14T12:49:19;99704.03;;;28.00;100.00
8286;BME280;4181;43.416;24.598;2023-06-14T12:54:28;99710.06;;;28.02;100.00
8286;BME280;4181;43.416;24.598;2023-06-14T12:57:04;99714.59;;;27.88;100.00
8286;BME280;4181;43.416;24.598;2023-06-14T13:02:19;99707.84;;;27.66;100.00
8286;BME280;4181;43.416;24.598;2023-06-14T13:05:01;99707.78;;;27.63;100.00
8286;BME280;4181;43.416;24.598;2023-06-14T13:07:35;99706.22;;;27.65;100.00
8286;BME280;4181;43.416;24.598;2023-06-14T13:10:03;99706.06;;;27.81;100.00
8286;BME280;4181;43.416;24.598;2023-06-14T13:12:33;99694.97;;;28.10;100.00
8286;BME280;4181;43.416;24.598;2023-06-14T13:15:11;99693.66;;;28.30;100.00
8286;BME280;4181;43.416;24.598;2023-06-14T13:17:43;99683.78;;;28.43;100.00
8286;BME280;4181;43.416;24.598;2023-06-14T13:20:20;99688.44;;;28.58;100.00
8286;BME280;4181;43.416;24.598;2023-06-14T13:22:51;99688.44;;;28.58;100.00
8286;BME280;4181;43.416;24.598;2023-06-14T13:25:19;99686.44;;;28.59;100.00
8286;BME280;4181;43.416;24.598;2023-06-14T13:27:51;99687.78;;;28.42;100.00
8286;BME280;4181;43.416;24.598;2023-06-14T13:30:32;99701.88;;;27.90;100.00
8286;BME280;4181;43.416;24.598;2023-06-14T13:33:06;99699.09;;;27.71;100.00
8286;BME280;4181;43.416;24.598;2023-06-14T13:35:35;99689.66;;;27.57;100.00
8286;BME280;4181;43.416;24.598;2023-06-14T13:38:02;99699.19;;;27.29;100.00
8286;BME280;4181;43.416;24.598;2023-06-14T13:40:33;99700.84;;;26.92;100.00
8286;BME280;4181;43.416;24.598;2023-06-14T13:43:07;99682.75;;;26.86;100.00
8286;BME280;4181;43.416;24.598;2023-06-14T13:45:36;99690.53;;;26.96;100.00
8286;BME280;4181;43.416;24.598;2023-06-14T13:48:08;99705.97;;;26.87;100.00
8286;BME280;4181;43.416;24.598;2023-06-14T13:50:40;99690.00;;;27.10;100.00
8286;BME280;4181;43.416;24.598;2023-06-14T13:53:08;99691.44;;;27.42;100.00
8286;BME280;4181;43.416;24.598;2023-06-14T13:55:42;99688.06;;;27.56;100.00
8286;BME280;4181;43.416;24.598;2023-06-14T13:58:10;99683.97;;;27.76;100.00
8286;BME280;4181;43.416;24.598;2023-06-14T14:00:51;99671.53;;;27.99;100.00
8286;BME280;4181;43.416;24.598;2023-06-14T14:03:29;99666.69;;;28.22;100.00
8286;BME280;4181;43.416;24.598;2023-06-14T14:06:04;99670.44;;;28.33;100.00
8286;BME280;4181;43.416;24.598;2023-06-14T14:08:36;99671.81;;;28.46;100.00
8286;BME280;4181;43.416;24.598;2023-06-14T14:11:05;99684.59;;;28.14;100.00
8286;BME280;4181;43.416;24.598;2023-06-14T14:13:39;99690.19;;;27.66;100.00
8286;BME280;4181;43.416;24.598;2023-06-14T14:16:08;99695.25;;;27.34;100.00
8286;BME280;4181;43.416;24.598;2023-06-14T14:18:38;99696.06;;;26.93;100.00
8286;BME280;4181;43.416;24.598;2023-06-14T14:21:10;99702.00;;;26.69;100.00
8286;BME280;4181;43.416;24.598;2023-06-14T14:23:43;99690.09;;;26.56;100.00